.
WxDataArchive / Data Records for 2011-08-22
2011-08-21 August 2011 2011-08-23

Data Records for Monday, 22 August 2011

Time	Temp	Chill	HIndex	Humid	Dewpt	 Wind 	HiWind	WindDir	Rain 	Barom 
-----	----	-----	------	-----	-----	------	------	-------	-----	----- 
00:00	65.5	65.5	65.5	65	53.4	0	0	---	0.00	29.991 
00:05	65.2	65.2	65.2	66	53.5	0	0	---	0.00	29.991 
00:10	64.8	64.8	64.8	67	53.6	0	0	---	0.00	29.991 
00:15	64.5	64.5	64.5	67	53.3	0	0	---	0.00	29.989 
00:20	64.2	64.2	64.2	68	53.4	0	0	---	0.00	29.989 
00:25	63.9	63.9	63.9	69	53.5	0	0	---	0.00	29.989 
00:30	63.5	63.5	63.5	70	53.5	0	0	---	0.00	29.987 
00:35	63.2	63.2	63.2	71	53.6	0	0	---	0.00	29.987 
00:40	62.9	62.9	62.9	72	53.7	0	0	---	0.00	29.987 
00:45	62.7	62.7	62.7	72	53.5	0	0	---	0.00	29.988 
00:50	62.4	62.4	62.4	73	53.6	0	0	---	0.00	29.988 
00:55	62.1	62.1	62.1	74	53.7	0	0	---	0.00	29.988 
01:00	61.8	61.8	61.8	74	53.4	0	0	---	0.00	29.992 
01:05	61.6	61.6	61.6	75	53.6	0	0	---	0.00	29.992 
01:10	61.3	61.3	61.3	76	53.7	0	0	---	0.00	29.992 
01:15	61.0	61.0	61.0	77	53.7	0	0	---	0.00	29.995 
01:20	60.7	60.7	60.7	78	53.8	0	0	---	0.00	29.995 
01:25	60.4	60.4	60.4	79	53.9	0	0	---	0.00	29.995 
01:30	60.1	60.1	60.1	80	53.9	0	0	---	0.00	30.001 
01:35	59.9	59.9	59.9	80	53.7	0	0	---	0.00	30.001 
01:40	59.6	59.6	59.6	81	53.8	0	0	---	0.00	30.001 
01:45	59.5	59.5	59.5	81	53.7	0	0	---	0.00	30.002 
01:50	59.2	59.2	59.2	82	53.7	0	0	---	0.00	30.002 
01:55	58.9	58.9	58.9	83	53.7	0	0	---	0.00	30.002 
02:00	58.7	58.7	58.7	84	53.9	0	0	---	0.00	30.003 
02:05	58.6	58.6	58.6	84	53.8	0	0	---	0.00	30.003 
02:10	58.4	58.4	58.4	84	53.6	0	0	---	0.00	30.003 
02:15	58.3	58.3	58.3	84	53.5	0	0	---	0.00	30.005 
02:20	58.1	58.1	58.1	85	53.6	0	0	---	0.00	30.005 
02:25	57.8	57.8	57.8	85	53.3	0	0	---	0.00	30.005 
02:30	57.6	57.6	57.6	86	53.4	0	0	---	0.00	30.005 
02:35	57.5	57.5	57.5	86	53.3	0	0	---	0.00	30.005 
02:40	57.5	57.5	57.5	86	53.3	0	0	---	0.00	30.005 
02:45	57.3	57.3	57.3	87	53.5	0	0	---	0.00	30.006 
02:50	57.2	57.2	57.2	87	53.4	0	0	---	0.00	30.006 
02:55	57.0	57.0	57.0	87	53.2	0	0	---	0.00	30.006 
03:00	57.0	57.0	57.0	88	53.5	0	0	---	0.00	30.003 
03:05	56.9	56.9	56.9	88	53.4	0	0	---	0.00	30.003 
03:10	56.9	56.9	56.9	88	53.4	0	0	---	0.00	30.003 
03:15	56.9	56.9	56.9	89	53.7	0	0	---	0.00	30.005 
03:20	57.0	57.0	57.0	89	53.8	0	0	---	0.00	30.005 
03:25	57.2	57.2	57.2	89	54.0	0	0	---	0.00	30.005 
03:30	57.0	57.0	57.0	89	53.8	0	0	---	0.00	30.011 
03:35	57.2	57.2	57.2	89	54.0	0	0	---	0.00	30.011 
03:40	57.2	57.2	57.2	89	54.0	0	0	---	0.00	30.011 
03:45	57.2	57.2	57.2	89	54.0	0	0	---	0.00	30.015 
03:50	57.3	57.3	57.3	89	54.1	0	0	---	0.00	30.015 
03:55	57.3	57.3	57.3	89	54.1	0	0	---	0.00	30.015 
04:00	57.3	57.3	57.3	89	54.1	0	0	---	0.00	30.019 
04:05	57.3	57.3	57.3	89	54.1	0	0	---	0.00	30.019 
04:10	57.2	57.2	57.2	89	54.0	0	0	---	0.00	30.019 
04:15	57.2	57.2	57.2	89	54.0	0	0	---	0.00	30.022 
04:20	57.2	57.2	57.2	89	54.0	0	0	---	0.00	30.022 
04:25	57.2	57.2	57.2	89	54.0	0	0	---	0.00	30.022 
04:30	57.2	57.2	57.2	89	54.0	0	0	---	0.00	30.022 
04:35	57.0	57.0	57.0	89	53.8	0	0	---	0.00	30.022 
04:40	56.9	56.9	56.9	89	53.7	0	0	---	0.00	30.022 
04:45	56.7	56.7	56.7	89	53.5	0	0	---	0.00	30.022 
04:50	56.6	56.6	56.6	89	53.4	0	0	---	0.00	30.022 
04:55	56.6	56.6	56.6	89	53.4	0	0	---	0.00	30.022 
05:00	56.5	56.5	56.5	90	53.6	0	0	---	0.00	30.022 
05:05	56.3	56.3	56.3	90	53.4	0	0	---	0.00	30.022 
05:10	56.2	56.2	56.2	90	53.3	0	0	---	0.00	30.022 
05:15	56.0	56.0	56.0	90	53.1	0	0	---	0.00	30.021 
05:20	56.0	56.0	56.0	90	53.1	0	0	---	0.00	30.021 
05:25	55.9	55.9	55.9	91	53.3	0	0	---	0.00	30.021 
05:30	55.9	55.9	55.9	91	53.3	0	0	---	0.00	30.022 
05:35	55.9	55.9	55.9	91	53.3	0	0	---	0.00	30.022 
05:40	56.0	56.0	56.0	91	53.4	0	0	---	0.00	30.022 
05:45	56.2	56.2	56.2	92	53.9	0	0	---	0.00	30.022 
05:50	56.2	56.2	56.2	92	53.9	0	0	---	0.00	30.022 
05:55	56.3	56.3	56.3	92	54.0	0	0	---	0.00	30.022 
06:00	56.3	56.3	56.3	92	54.0	0	0	---	0.00	30.022 
06:05	56.2	56.2	56.2	92	53.9	0	0	---	0.00	30.022 
06:10	56.2	56.2	56.2	92	53.9	0	0	---	0.00	30.022 
06:15	56.2	56.2	56.2	92	53.9	0	0	---	0.00	30.024 
06:20	56.0	56.0	56.0	92	53.7	0	0	---	0.00	30.024 
06:25	55.7	55.7	55.7	92	53.4	0	0	---	0.00	30.024 
06:30	55.7	55.7	55.7	92	53.4	0	0	---	0.00	30.032 
06:35	55.6	55.6	55.6	92	53.3	0	0	---	0.00	30.032 
06:40	55.7	55.7	55.7	92	53.4	0	0	---	0.00	30.032 
06:45	55.6	55.6	55.6	92	53.3	0	0	---	0.00	30.036 
06:50	55.6	55.6	55.6	92	53.3	0	0	---	0.00	30.036 
06:55	55.7	55.7	55.7	92	53.4	0	0	---	0.00	30.036 
07:00	55.7	55.7	55.7	92	53.4	0	0	---	0.00	30.037 
07:05	55.9	55.9	55.9	92	53.6	0	0	---	0.00	30.037 
07:10	55.9	55.9	55.9	92	53.6	0	0	---	0.00	30.037 
07:15	55.9	55.9	55.9	93	53.9	0	0	---	0.00	30.042 
07:20	55.9	55.9	55.9	93	53.9	0	0	---	0.00	30.042 
07:25	56.0	56.0	56.0	93	54.0	0	0	---	0.00	30.042 
07:30	56.0	56.0	56.0	93	54.0	0	0	---	0.00	30.043 
07:35	56.2	56.2	56.2	93	54.2	0	0	---	0.00	30.043 
07:40	56.3	56.3	56.3	93	54.3	0	0	---	0.00	30.043 
07:45	56.6	56.6	56.6	93	54.6	0	0	---	0.00	30.043 
07:50	56.9	56.9	56.9	93	54.9	0	0	---	0.00	30.043 
07:55	57.3	57.3	57.3	93	55.3	0	0	---	0.00	30.043 
08:00	58.0	58.0	58.0	93	56.0	0	0	---	0.00	30.050 
08:05	58.4	58.4	58.4	92	56.1	0	0	---	0.00	30.050 
08:10	59.2	59.2	59.2	92	56.9	0	0	---	0.00	30.050 
08:15	59.8	59.8	59.8	91	57.2	0	1	315	0.00	30.053 
08:20	60.5	60.5	60.5	90	57.5	0	0	---	0.00	30.053 
08:25	61.2	61.2	61.2	88	57.6	0	0	---	0.00	30.053 
08:30	62.0	62.0	62.0	86	57.8	0	0	---	0.00	30.057 
08:35	62.6	62.6	62.6	84	57.7	0	0	---	0.00	30.057 
08:40	63.1	63.1	63.1	82	57.5	0	0	---	0.00	30.057 
08:45	63.7	63.7	63.7	80	57.4	0	0	---	0.00	30.058 
08:50	64.3	64.3	64.3	79	57.6	0	0	---	0.00	30.058 
08:55	65.0	65.0	65.0	77	57.6	0	0	---	0.00	30.058 
09:00	65.5	65.5	65.5	76	57.7	0	3	315	0.00	30.063 
09:05	66.0	66.0	66.0	75	57.8	0	2	315	0.00	30.063 
09:10	66.4	66.4	66.4	73	57.5	0	1	315	0.00	30.063 
09:15	66.9	66.9	66.9	73	58.0	0	2	315	0.00	30.067 
09:20	67.4	67.4	67.4	71	57.7	1	3	315	0.00	30.067 
09:25	67.9	67.9	67.9	70	57.7	1	2	315	0.00	30.067 
09:30	68.6	68.6	68.6	69	58.0	0	2	315	0.00	30.066 
09:35	69.3	69.3	69.3	65	57.0	1	3	315	0.00	30.066 
09:40	69.8	69.8	69.8	65	57.5	0	2	315	0.00	30.066 
09:45	70.3	70.3	70.3	63	57.1	1	3	315	0.00	30.065 
09:50	70.6	70.6	70.6	61	56.5	1	2	315	0.00	30.065 
09:55	70.9	70.9	70.9	59	55.8	1	5	292	0.00	30.065 
10:00	71.5	71.5	71.5	57	55.5	2	4	292	0.00	30.066 
10:05	71.8	71.8	71.8	57	55.7	1	4	292	0.00	30.066 
10:10	72.1	72.1	72.1	55	55.0	2	3	292	0.00	30.066 
10:15	72.1	72.1	72.1	55	55.0	1	4	315	0.00	30.067 
10:20	72.3	72.3	72.3	56	55.7	1	3	315	0.00	30.067 
10:25	72.5	72.5	72.5	54	54.9	2	3	292	0.00	30.067 
10:30	73.0	73.0	73.0	54	55.4	1	4	292	0.00	30.068 
10:35	73.3	73.3	73.3	53	55.1	2	5	292	0.00	30.068 
10:40	73.7	73.7	73.7	52	55.0	2	4	292	0.00	30.068 
10:45	74.0	74.0	74.0	52	55.2	2	4	292	0.00	30.065 
10:50	74.4	74.4	74.4	51	55.1	2	5	270	0.00	30.065 
10:55	74.7	74.7	74.7	51	55.4	1	3	270	0.00	30.065 
11:00	75.3	75.3	77.7	50	55.4	1	4	270	0.00	30.065 
11:05	75.3	75.3	77.7	48	54.2	2	6	270	0.00	30.065 
11:10	75.3	75.3	77.7	48	54.2	2	4	270	0.00	30.065 
11:15	75.3	75.3	77.7	45	52.5	2	6	315	0.00	30.068 
11:20	75.8	75.8	77.9	45	52.9	1	3	315	0.00	30.068 
11:25	76.0	76.0	78.0	46	53.7	2	5	270	0.00	30.068 
11:30	76.1	76.1	78.0	45	53.2	1	3	270	0.00	30.065 
11:35	76.1	76.1	77.9	42	51.3	3	5	270	0.00	30.065 
11:40	76.1	76.1	78.0	45	53.2	1	4	270	0.00	30.065 
11:45	76.7	76.7	78.2	43	52.5	2	4	270	0.00	30.064 
11:50	76.8	76.8	78.3	43	52.6	1	3	270	0.00	30.064 
11:55	77.4	77.4	78.5	41	51.8	1	3	292	0.00	30.064 
12:00	77.4	77.4	78.5	41	51.8	1	5	270	0.00	30.063 
12:05	77.4	77.4	78.4	39	50.5	2	4	270	0.00	30.063 
12:10	77.4	77.4	78.4	40	51.2	2	4	270	0.00	30.063 
12:15	77.0	77.0	78.3	41	51.5	2	5	270	0.00	30.066 
12:20	77.6	77.6	78.5	40	51.3	1	3	270	0.00	30.066 
12:25	77.7	77.7	78.4	37	49.3	3	7	270	0.00	30.066 
12:30	77.6	77.6	78.4	38	50.0	1	5	315	0.00	30.059 
12:35	78.1	78.1	78.7	39	51.1	1	3	315	0.00	30.059 
12:40	78.1	78.1	78.8	40	51.8	2	4	292	0.00	30.059 
12:45	78.6	78.6	78.9	37	50.1	2	6	292	0.00	30.055 
12:50	78.5	78.5	78.8	37	50.0	1	4	22	0.00	30.055 
12:55	78.6	78.6	78.8	36	49.4	1	2	22	0.00	30.055 
13:00	78.3	78.3	78.7	37	49.9	1	3	22	0.00	30.051 
13:05	77.6	77.6	78.4	37	49.2	2	5	292	0.00	30.051 
13:10	77.9	77.9	78.5	37	49.5	1	4	292	0.00	30.051 
13:15	77.9	77.9	78.6	39	50.9	3	9	292	0.00	30.052 
13:20	78.5	78.5	78.8	37	50.0	2	5	292	0.00	30.052 
13:25	78.8	78.8	79.0	38	51.0	3	5	338	0.00	30.052 
13:30	79.2	79.2	79.0	34	48.4	2	5	270	0.00	30.043 
13:35	79.0	79.0	78.9	34	48.2	3	6	270	0.00	30.043 
13:40	77.9	77.9	78.4	36	48.8	2	5	292	0.00	30.043 
13:45	78.5	78.5	78.8	37	50.0	2	3	270	0.00	30.042 
13:50	79.2	79.2	79.1	35	49.2	1	4	292	0.00	30.042 
13:55	78.6	78.6	78.8	36	49.4	1	2	292	0.00	30.042 
14:00	78.3	78.3	78.6	36	49.1	1	5	270	0.00	30.039 
14:05	78.6	78.6	78.8	36	49.4	1	4	270	0.00	30.039 
14:10	78.1	78.1	78.5	36	48.9	1	3	292	0.00	30.039 
14:15	77.7	77.7	78.4	37	49.3	1	4	292	0.00	30.039 
14:20	77.6	77.6	78.4	38	50.0	0	2	315	0.00	30.039 
14:25	77.6	77.6	78.4	38	50.0	2	4	292	0.00	30.039 
14:30	78.3	78.3	78.6	36	49.1	2	4	315	0.00	30.037 
14:35	78.5	78.5	78.7	36	49.3	2	4	292	0.00	30.037 
14:40	77.9	77.9	78.5	37	49.5	3	5	270	0.00	30.037 
14:45	77.7	77.7	78.4	37	49.3	1	4	270	0.00	30.038 
14:50	77.7	77.7	78.5	38	50.0	1	3	292	0.00	30.038 
14:55	77.6	77.6	78.4	38	50.0	1	4	292	0.00	30.038 
15:00	77.4	77.4	78.3	38	49.8	1	4	292	0.00	30.038 
15:05	77.2	77.2	78.3	39	50.3	0	2	292	0.00	30.038 
15:10	77.2	77.2	78.3	40	51.0	1	3	292	0.00	30.038 
15:15	77.2	77.2	78.2	38	49.6	2	6	315	0.00	30.034 
15:20	78.1	78.1	78.7	38	50.4	1	4	292	0.00	30.034 
15:25	78.5	78.5	78.8	37	50.0	1	4	0	0.00	30.034 
15:30	78.6	78.6	78.9	37	50.1	2	5	270	0.00	30.027 
15:35	78.6	78.6	79.0	39	51.5	2	5	270	0.00	30.027 
15:40	77.9	77.9	78.6	39	50.9	2	5	270	0.00	30.027 
15:45	77.6	77.6	78.5	40	51.3	1	3	315	0.00	30.027 
15:50	77.7	77.7	78.6	40	51.4	1	4	270	0.00	30.027 
15:55	78.5	78.5	78.9	38	50.8	2	5	292	0.00	30.027 
16:00	78.6	78.6	78.9	38	50.8	2	5	315	0.00	30.021 
16:05	78.6	78.6	78.9	38	50.8	2	4	270	0.00	30.021 
16:10	78.5	78.5	78.9	38	50.8	2	4	270	0.00	30.021 
16:15	78.5	78.5	78.9	39	51.5	1	3	270	0.00	30.020 
16:20	79.4	79.4	79.4	38	51.6	2	6	270	0.00	30.020 
16:25	79.8	79.8	79.3	34	48.9	2	5	270	0.00	30.020 
16:30	79.9	79.9	79.5	35	49.8	2	5	270	0.00	30.016 
16:35	79.6	79.6	79.3	35	49.5	2	3	315	0.00	30.016 
16:40	79.6	79.6	79.4	36	50.3	2	7	270	0.00	30.016 
16:45	79.2	79.2	79.2	37	50.7	2	4	338	0.00	30.012 
16:50	79.2	79.2	79.3	38	51.4	2	4	338	0.00	30.012 
16:55	79.0	79.0	79.2	38	51.2	3	7	315	0.00	30.012 
17:00	79.4	79.4	79.4	38	51.6	1	2	338	0.00	30.008 
17:05	79.8	79.8	79.6	37	51.2	2	5	270	0.00	30.008 
17:10	79.6	79.6	79.5	38	51.7	2	5	270	0.00	30.008 
17:15	79.9	79.9	79.8	39	52.7	1	3	270	0.00	30.008 
17:20	79.9	79.9	79.7	38	52.0	1	3	315	0.00	30.008 
17:25	79.6	79.6	79.6	39	52.4	2	7	270	0.00	30.008 
17:30	79.6	79.6	79.7	40	53.1	2	6	292	0.00	30.006 
17:35	79.2	79.2	79.4	40	52.8	1	3	292	0.00	30.006 
17:40	78.8	78.8	79.3	42	53.7	2	4	270	0.00	30.006 
17:45	78.6	78.6	79.2	42	53.6	1	2	270	0.00	30.008 
17:50	78.6	78.6	79.2	42	53.6	1	3	270	0.00	30.008 
17:55	78.5	78.5	79.1	42	53.5	1	3	315	0.00	30.008 
18:00	78.5	78.5	79.1	41	52.8	1	2	315	0.00	30.005 
18:05	78.5	78.5	79.2	43	54.1	2	5	315	0.00	30.005 
18:10	78.1	78.1	78.9	42	53.1	2	4	270	0.00	30.005 
18:15	77.7	77.7	78.7	43	53.4	1	4	292	0.00	30.007 
18:20	77.7	77.7	78.7	43	53.4	0	3	292	0.00	30.007 
18:25	77.7	77.7	78.8	44	54.0	0	3	292	0.00	30.007 
18:30	77.7	77.7	78.7	43	53.4	0	2	292	0.00	30.001 
18:35	77.7	77.7	78.7	43	53.4	0	2	292	0.00	30.001 
18:40	77.6	77.6	78.7	43	53.3	0	2	292	0.00	30.001 
18:45	77.4	77.4	78.6	43	53.1	0	1	292	0.00	30.004 
18:50	77.2	77.2	78.5	44	53.6	0	1	292	0.00	30.004 
18:55	77.4	77.4	78.6	44	53.8	0	2	292	0.00	30.004 
19:00	77.6	77.6	78.7	44	53.9	0	3	292	0.00	29.999 
19:05	77.9	77.9	78.8	43	53.6	0	2	292	0.00	29.999 
19:10	78.3	78.3	79.1	43	53.9	1	4	292	0.00	29.999 
19:15	78.1	78.1	78.9	43	53.8	2	4	292	0.00	29.998 
19:20	77.7	77.7	78.8	44	54.0	3	5	270	0.00	29.998 
19:25	77.4	77.4	78.6	45	54.4	1	4	270	0.00	29.998 
19:30	77.2	77.2	78.5	45	54.2	1	3	270	0.00	29.996 
19:35	76.8	76.8	78.4	46	54.4	1	3	270	0.00	29.996 
19:40	76.7	76.7	78.3	46	54.3	0	3	270	0.00	29.996 
19:45	76.5	76.5	78.2	46	54.2	0	1	270	0.00	29.997 
19:50	76.5	76.5	78.3	47	54.7	0	2	270	0.00	29.997 
19:55	76.3	76.3	78.2	47	54.6	1	4	270	0.00	29.997 
20:00	76.0	76.0	78.0	46	53.7	2	4	292	0.00	29.996 
20:05	76.0	76.0	78.0	47	54.3	1	3	315	0.00	29.996 
20:10	75.8	75.8	78.0	48	54.7	0	2	270	0.00	29.996 
20:15	75.4	75.4	77.8	48	54.3	1	3	292	0.00	29.990 
20:20	75.3	75.3	77.7	49	54.8	0	2	292	0.00	29.990 
20:25	74.9	74.9	74.9	50	55.0	0	2	292	0.00	29.990 
20:30	74.7	74.7	74.7	50	54.8	0	1	292	0.00	29.991 
20:35	74.4	74.4	74.4	51	55.1	0	1	292	0.00	29.991 
20:40	74.2	74.2	74.2	52	55.4	0	1	292	0.00	29.991 
20:45	73.9	73.9	73.9	52	55.1	0	1	292	0.00	29.991 
20:50	73.5	73.5	73.5	53	55.3	0	0	---	0.00	29.991 
20:55	73.3	73.3	73.3	54	55.6	0	0	---	0.00	29.991 
21:00	72.8	72.8	72.8	54	55.2	0	0	---	0.00	29.993 
21:05	72.7	72.7	72.7	55	55.6	0	0	---	0.00	29.993 
21:10	72.3	72.3	72.3	56	55.7	0	0	---	0.00	29.993 
21:15	72.0	72.0	72.0	57	55.9	0	0	---	0.00	29.996 
21:20	71.6	71.6	71.6	58	56.0	0	0	---	0.00	29.996 
21:25	71.3	71.3	71.3	59	56.2	0	0	---	0.00	29.996 
21:30	70.9	70.9	70.9	59	55.8	0	0	---	0.00	30.001 
21:35	70.6	70.6	70.6	60	56.0	0	0	---	0.00	30.001 
21:40	70.3	70.3	70.3	61	56.2	0	0	---	0.00	30.001 
21:45	69.8	69.8	69.8	62	56.2	0	0	---	0.00	30.004 
21:50	69.3	69.3	69.3	63	56.2	0	0	---	0.00	30.004 
21:55	68.9	68.9	68.9	64	56.2	0	0	---	0.00	30.004 
22:00	68.6	68.6	68.6	65	56.4	0	0	---	0.00	30.011 
22:05	68.3	68.3	68.3	66	56.5	0	0	---	0.00	30.011 
22:10	67.9	67.9	67.9	66	56.1	0	0	---	0.00	30.011 
22:15	67.6	67.6	67.6	67	56.2	0	0	---	0.00	30.012 
22:20	67.3	67.3	67.3	68	56.4	0	0	---	0.00	30.012 
22:25	67.1	67.1	67.1	69	56.6	0	0	---	0.00	30.012 
22:30	66.8	66.8	66.8	70	56.7	0	0	---	0.00	30.013 
22:35	66.6	66.6	66.6	71	56.9	0	0	---	0.00	30.013 
22:40	66.4	66.4	66.4	71	56.7	0	0	---	0.00	30.013 
22:45	66.3	66.3	66.3	71	56.6	0	0	---	0.00	30.012 
22:50	66.1	66.1	66.1	72	56.8	0	0	---	0.00	30.012 
22:55	66.0	66.0	66.0	73	57.1	0	0	---	0.00	30.012 
23:00	65.6	65.6	65.6	73	56.7	0	0	---	0.00	30.012 
23:05	65.5	65.5	65.5	74	57.0	0	0	---	0.00	30.012 
23:10	65.3	65.3	65.3	74	56.8	0	0	---	0.00	30.012 
23:15	65.2	65.2	65.2	75	57.1	0	0	---	0.00	30.014 
23:20	65.0	65.0	65.0	75	56.9	0	0	---	0.00	30.014 
23:25	64.8	64.8	64.8	76	57.0	0	0	---	0.00	30.014 
23:30	64.7	64.7	64.7	77	57.3	0	0	---	0.00	30.016 
23:35	64.5	64.5	64.5	77	57.1	0	0	---	0.00	30.016 
23:40	64.2	64.2	64.2	77	56.8	0	0	---	0.00	30.016 
23:45	64.0	64.0	64.0	78	57.0	0	0	---	0.00	30.018 
23:50	63.9	63.9	63.9	78	56.9	0	0	---	0.00	30.018 
23:55	63.7	63.7	63.7	79	57.1	0	0	---	0.00	30.018 

CoCoRaHS
IN-AL-39
A2 Web Hosting
Creative Commons License
GoDaddy
search engine by freefind advanced

loaded 2018-11-12 19:59:43 • last modified 2010-11-18 10:43:29
Privacy PolicyDisclaimer
• wx.awcolley.com is powered by PmWiki v.2002016 •
• all content (unless otherwise noted) © 2018 A W Colley